createdAt,value
2022-11-27T00:00:49.120Z,102287.27
2022-11-27T00:01:53.384Z,102296.77
2022-11-27T00:02:57.963Z,102302.58
2022-11-27T00:04:02.665Z,102294.69
2022-11-27T00:05:07.175Z,102295.98
2022-11-27T00:06:11.433Z,102296.9
2022-11-27T00:07:15.928Z,102301.76
2022-11-27T00:08:20.220Z,102297.65
2022-11-27T00:09:24.447Z,102300.86
2022-11-27T00:10:28.668Z,102301.97
2022-11-27T00:11:32.872Z,102299.09
2022-11-27T00:12:37.177Z,102295.94
2022-11-27T00:13:41.403Z,102295
2022-11-27T00:14:45.613Z,102298.66
2022-11-27T00:15:49.987Z,102298.37
2022-11-27T00:16:54.344Z,102295.2
2022-11-27T00:17:58.566Z,102295.33
2022-11-27T00:19:02.881Z,102288.13
2022-11-27T00:20:10.213Z,102297.09
2022-11-27T00:21:14.617Z,102299.77
2022-11-27T00:22:18.928Z,102299.23
2022-11-27T00:23:23.159Z,102301.3
2022-11-27T00:24:27.381Z,102296.05
2022-11-27T00:25:31.608Z,102293.19
2022-11-27T00:26:39.224Z,102293.23
2022-11-27T00:27:43.503Z,102290.03
2022-11-27T00:28:47.741Z,102291.53
2022-11-27T00:29:51.970Z,102291.53
2022-11-27T00:30:56.321Z,102291.11
2022-11-27T00:32:00.702Z,102294.09
2022-11-27T00:33:04.924Z,102285.44
2022-11-27T00:34:12.305Z,102290.88
2022-11-27T00:35:16.531Z,102289.28
2022-11-27T00:36:20.760Z,102288.73
2022-11-27T00:37:24.981Z,102290.57
2022-11-27T00:38:29.208Z,102297.22
2022-11-27T00:39:37.915Z,102300.51
2022-11-27T00:40:42.150Z,102301.58
2022-11-27T00:41:46.493Z,102304.09
2022-11-27T00:42:50.739Z,102298.73
2022-11-27T00:43:55.008Z,102304.83
2022-11-27T00:44:59.235Z,102298.3
2022-11-27T00:46:03.527Z,102303.16
2022-11-27T00:47:08.106Z,102307.5
2022-11-27T00:48:12.349Z,102299.83
2022-11-27T00:49:16.609Z,102296.36
2022-11-27T00:50:20.825Z,102304.69
2022-11-27T00:51:25.058Z,102300.67
2022-11-27T00:52:29.279Z,102301.54
2022-11-27T00:53:33.519Z,102298.55
2022-11-27T00:54:37.932Z,102294.39
2022-11-27T00:55:42.677Z,102297.07
2022-11-27T00:56:46.902Z,102296.05
2022-11-27T00:57:51.124Z,102297.45
2022-11-27T00:58:55.355Z,102302.31
2022-11-27T00:59:59.587Z,102299.44
2022-11-27T01:01:03.825Z,102304.2
2022-11-27T01:02:08.311Z,102301.28
2022-11-27T01:03:12.816Z,102295.23
2022-11-27T01:04:17.176Z,102297.55
2022-11-27T01:05:21.391Z,102302.73
2022-11-27T01:06:25.607Z,102303.05
2022-11-27T01:07:30.051Z,102305.41
2022-11-27T01:08:34.350Z,102301.99
2022-11-27T01:09:38.550Z,102300.66
2022-11-27T01:10:42.786Z,102301.39
2022-11-27T01:11:47.069Z,102298.95
2022-11-27T01:12:51.284Z,102297.61
2022-11-27T01:13:55.531Z,102299.73
2022-11-27T01:14:59.761Z,102302.13
2022-11-27T01:16:04.215Z,102302.59
2022-11-27T01:17:08.628Z,102304.81
2022-11-27T01:18:12.846Z,102300.89
2022-11-27T01:19:17.049Z,102304.17
2022-11-27T01:20:21.401Z,102302.23
2022-11-27T01:21:25.663Z,102306.25
2022-11-27T01:22:29.887Z,102308.02
2022-11-27T01:23:34.132Z,102314.42
2022-11-27T01:24:38.973Z,102315.72
2022-11-27T01:25:43.782Z,102314.37
2022-11-27T01:26:48.067Z,102317.16
2022-11-27T01:27:52.291Z,102319.15
2022-11-27T01:28:56.507Z,102320.94
2022-11-27T01:30:00.733Z,102320.8
2022-11-27T01:31:05.121Z,102320.86
2022-11-27T01:32:09.477Z,102318.91
2022-11-27T01:33:13.699Z,102317.17
2022-11-27T01:34:17.918Z,102314.11
2022-11-27T01:35:22.199Z,102314.55
2022-11-27T01:36:27.474Z,102314.69
2022-11-27T01:37:31.738Z,102315.41
2022-11-27T01:38:35.941Z,102307.11
2022-11-27T01:39:40.168Z,102308.88
2022-11-27T01:40:44.403Z,102305.91
2022-11-27T01:41:48.607Z,102309.69
2022-11-27T01:42:52.849Z,102304.18
2022-11-27T01:43:57.070Z,102305.3
2022-11-27T01:45:01.265Z,102306.14
2022-11-27T01:46:05.646Z,102304.25
2022-11-27T01:47:09.963Z,102301.89
2022-11-27T01:48:15.273Z,102308.14
2022-11-27T01:49:19.510Z,102303.7
2022-11-27T01:50:23.743Z,102306.01
2022-11-27T01:51:28.016Z,102299.44
2022-11-27T01:52:32.250Z,102301.2
2022-11-27T01:53:36.456Z,102304.67
2022-11-27T01:54:41.369Z,102304.63
2022-11-27T01:55:46.182Z,102306.33
2022-11-27T01:56:50.399Z,102306.74
2022-11-27T01:57:54.637Z,102310.34
2022-11-27T01:58:58.849Z,102307.11
2022-11-27T02:00:03.081Z,102312.81
2022-11-27T02:01:07.329Z,102302.45
2022-11-27T02:02:11.760Z,102304.67
2022-11-27T02:03:16.345Z,102304.98
2022-11-27T02:04:20.656Z,102309.66
2022-11-27T02:05:24.911Z,102310.5
2022-11-27T02:06:29.137Z,102307.72
2022-11-27T02:07:33.482Z,102312.2
2022-11-27T02:08:37.926Z,102307.81
2022-11-27T02:09:42.350Z,102311.36
2022-11-27T02:10:46.584Z,102313.86
2022-11-27T02:11:50.823Z,102309
2022-11-27T02:12:55.034Z,102307.81
2022-11-27T02:13:59.234Z,102316.36
2022-11-27T02:15:03.517Z,102311.05
2022-11-27T02:16:08.005Z,102312.98
2022-11-27T02:17:15.993Z,102311.59
2022-11-27T02:18:20.249Z,102311.23
2022-11-27T02:19:24.509Z,102306.3
2022-11-27T02:20:28.745Z,102312.8
2022-11-27T02:21:32.983Z,102310.91
2022-11-27T02:22:37.222Z,102309.99
2022-11-27T02:23:41.506Z,102308.23
2022-11-27T02:24:45.711Z,102312.63
2022-11-27T02:25:49.950Z,102315.8
2022-11-27T02:26:54.174Z,102304.77
2022-11-27T02:27:58.397Z,102314.61
2022-11-27T02:29:02.634Z,102311.52
2022-11-27T02:30:06.863Z,102309.39
2022-11-27T02:31:11.212Z,102313.04
2022-11-27T02:32:15.583Z,102310.73
2022-11-27T02:33:19.811Z,102300.06
2022-11-27T02:34:24.043Z,102310.23
2022-11-27T02:35:28.268Z,102302.92
2022-11-27T02:36:32.474Z,102298.3
2022-11-27T02:37:36.694Z,102303.98
2022-11-27T02:38:41.036Z,102305.05
2022-11-27T02:39:45.255Z,102303.11
2022-11-27T02:40:49.497Z,102309.81
2022-11-27T02:41:53.707Z,102304.45
2022-11-27T02:42:58.005Z,102304.08
2022-11-27T02:44:02.216Z,102304.5
2022-11-27T02:45:06.467Z,102299.46
2022-11-27T02:46:10.827Z,102301.22
2022-11-27T02:47:15.148Z,102294.47
2022-11-27T02:48:19.365Z,102294.02
2022-11-27T02:49:23.586Z,102294.89
2022-11-27T02:50:27.825Z,102295.36
2022-11-27T02:51:32.018Z,102293.97
2022-11-27T02:52:36.540Z,102293.12
2022-11-27T02:53:40.776Z,102297.7
2022-11-27T02:54:45.067Z,102291.47
2022-11-27T02:55:49.271Z,102292.02
2022-11-27T02:56:53.509Z,102291.89
2022-11-27T02:57:57.777Z,102293.05
2022-11-27T02:59:02.075Z,102290.31
2022-11-27T03:00:06.321Z,102293.78
2022-11-27T03:01:10.567Z,102293.47
2022-11-27T03:02:15.056Z,102290.63
2022-11-27T03:03:19.512Z,102290.31
2022-11-27T03:04:23.831Z,102299.69
2022-11-27T03:05:28.042Z,102292.95
2022-11-27T03:06:32.287Z,102296
2022-11-27T03:07:37.120Z,102295.4
2022-11-27T03:08:41.449Z,102293.64
2022-11-27T03:09:45.728Z,102291.39
2022-11-27T03:10:49.972Z,102293.55
2022-11-27T03:11:54.200Z,102297.48
2022-11-27T03:12:58.425Z,102291.98
2022-11-27T03:14:02.631Z,102287.22
2022-11-27T03:15:06.898Z,102290.73
2022-11-27T03:16:11.241Z,102286.62
2022-11-27T03:17:15.588Z,102290.19
2022-11-27T03:18:19.795Z,102286.17
2022-11-27T03:19:24.019Z,102292.02
2022-11-27T03:20:28.261Z,102286.25
2022-11-27T03:21:32.454Z,102283.72
2022-11-27T03:22:36.681Z,102286.41
2022-11-27T03:23:40.958Z,102283.86
2022-11-27T03:24:45.186Z,102287.73
2022-11-27T03:25:49.407Z,102289.45
2022-11-27T03:26:53.647Z,102296.97
2022-11-27T03:27:57.868Z,102288.84
2022-11-27T03:29:02.086Z,102287.14
2022-11-27T03:30:06.312Z,102288.61
2022-11-27T03:31:10.650Z,102287.69
2022-11-27T03:32:15.064Z,102291.15
2022-11-27T03:33:19.286Z,102287.14
2022-11-27T03:34:23.534Z,102284.41
2022-11-27T03:35:27.765Z,102285.48
2022-11-27T03:36:31.996Z,102279.47
2022-11-27T03:37:36.201Z,102272.41
2022-11-27T03:38:40.430Z,102277.34
2022-11-27T03:39:44.654Z,102282.25
2022-11-27T03:40:48.881Z,102280.02
2022-11-27T03:41:53.100Z,102270.75
2022-11-27T03:42:57.370Z,102267.52
2022-11-27T03:44:01.585Z,102272.83
2022-11-27T03:45:05.809Z,102271.72
2022-11-27T03:46:10.104Z,102262.84
2022-11-27T03:47:14.569Z,102259.67
2022-11-27T03:48:18.911Z,102262.34
2022-11-27T03:49:23.134Z,102262.03
2022-11-27T03:50:27.421Z,102258.38
2022-11-27T03:51:31.634Z,102257.59
2022-11-27T03:52:35.859Z,102253.44
2022-11-27T03:53:40.112Z,102259.06
2022-11-27T03:54:44.335Z,102257.27
2022-11-27T03:55:48.560Z,102258.27
2022-11-27T03:56:52.803Z,102256.56
2022-11-27T03:57:57.270Z,102258.01
2022-11-27T03:59:01.559Z,102264.47
2022-11-27T04:00:05.795Z,102262.3
2022-11-27T04:01:10.019Z,102261.7
2022-11-27T04:02:14.337Z,102259.11
2022-11-27T04:03:18.740Z,102259.11
2022-11-27T04:04:23.156Z,102259.95
2022-11-27T04:05:27.512Z,102260.95
2022-11-27T04:06:31.749Z,102263.18
2022-11-27T04:07:36.100Z,102261.55
2022-11-27T04:08:40.450Z,102265.62
2022-11-27T04:09:44.693Z,102263.96
2022-11-27T04:10:48.900Z,102263.78
2022-11-27T04:11:53.132Z,102265.16
2022-11-27T04:12:57.378Z,102261.65
2022-11-27T04:14:01.589Z,102254.64
2022-11-27T04:15:05.834Z,102249.52
2022-11-27T04:16:10.303Z,102250.34
2022-11-27T04:17:14.646Z,102249.6
2022-11-27T04:18:18.868Z,102252.75
2022-11-27T04:19:23.174Z,102252.28
2022-11-27T04:20:27.416Z,102249.6
2022-11-27T04:21:31.963Z,102241.44
2022-11-27T04:22:36.201Z,102245.95
2022-11-27T04:23:40.411Z,102238.89
2022-11-27T04:24:44.662Z,102239.13
2022-11-27T04:25:48.893Z,102240.78
2022-11-27T04:26:53.111Z,102242.22
2022-11-27T04:27:57.354Z,102242.54
2022-11-27T04:29:01.572Z,102240.59
2022-11-27T04:30:06.835Z,102243.05
2022-11-27T04:31:11.243Z,102241.34
2022-11-27T04:32:15.687Z,102238.58
2022-11-27T04:33:19.936Z,102238.16
2022-11-27T04:34:25.177Z,102239.55
2022-11-27T04:35:29.391Z,102238.81
2022-11-27T04:36:39.993Z,102232.12
2022-11-27T04:37:44.260Z,102231.28
2022-11-27T04:38:48.475Z,102234.01
2022-11-27T04:39:52.681Z,102234.75
2022-11-27T04:40:56.921Z,102235.11
2022-11-27T04:42:01.153Z,102229.99
2022-11-27T04:43:05.379Z,102235.16
2022-11-27T04:44:09.601Z,102233.27
2022-11-27T04:45:13.840Z,102236
2022-11-27T04:46:18.163Z,102234.88
2022-11-27T04:47:22.443Z,102240.05
2022-11-27T04:48:26.702Z,102233.83
2022-11-27T04:49:30.918Z,102245.72
2022-11-27T04:50:35.161Z,102237.23
2022-11-27T04:51:39.419Z,102236.77
2022-11-27T04:52:43.660Z,102242.17
2022-11-27T04:53:47.913Z,102240.65
2022-11-27T04:55:00.148Z,102229.94
2022-11-27T04:56:04.741Z,102236.41
2022-11-27T04:57:09.008Z,102233.83
2022-11-27T04:58:13.247Z,102238.39
2022-11-27T04:59:17.493Z,102231.52
2022-11-27T05:00:21.751Z,102231.59
2022-11-27T05:01:26.171Z,102233.83
2022-11-27T05:02:30.829Z,102233.95
2022-11-27T05:03:35.153Z,102237.11
2022-11-27T05:04:40.014Z,102237.74
2022-11-27T05:05:47.835Z,102238.66
2022-11-27T05:06:52.076Z,102236.77
2022-11-27T05:07:56.496Z,102240.92
2022-11-27T05:09:01.015Z,102247.05
2022-11-27T05:10:05.286Z,102246.81
2022-11-27T05:11:09.507Z,102252.24
2022-11-27T05:12:13.710Z,102250.09
2022-11-27T05:13:18.026Z,102250.66
2022-11-27T05:14:22.377Z,102250.77
2022-11-27T05:15:26.571Z,102250.05
2022-11-27T05:16:30.925Z,102254.81
2022-11-27T05:17:35.212Z,102250.77
2022-11-27T05:18:39.420Z,102243.64
2022-11-27T05:19:43.647Z,102250.41
2022-11-27T05:20:48.084Z,102251.13
2022-11-27T05:21:52.336Z,102249.84
2022-11-27T05:22:56.579Z,102246.86
2022-11-27T05:24:00.778Z,102243.98
2022-11-27T05:25:05.006Z,102256.38
2022-11-27T05:26:09.240Z,102253.97
2022-11-27T05:27:13.490Z,102252.38
2022-11-27T05:28:20.114Z,102251.34
2022-11-27T05:29:30.317Z,102255.79
2022-11-27T05:30:34.532Z,102254.76
2022-11-27T05:31:38.971Z,102255.85
2022-11-27T05:32:43.322Z,102253.03
2022-11-27T05:33:47.538Z,102254.06
2022-11-27T05:34:51.734Z,102241.52
2022-11-27T05:35:56.008Z,102248.43
2022-11-27T05:37:00.245Z,102246.16
2022-11-27T05:38:04.520Z,102245.6
2022-11-27T05:39:08.825Z,102246.95
2022-11-27T05:40:13.061Z,102243.37
2022-11-27T05:41:17.265Z,102248.03
2022-11-27T05:42:21.483Z,102247.42
2022-11-27T05:43:25.707Z,102247.42
2022-11-27T05:44:29.975Z,102254.49
2022-11-27T05:45:34.260Z,102242.05
2022-11-27T05:46:38.661Z,102258.8
2022-11-27T05:47:43.048Z,102248.9
2022-11-27T05:48:47.259Z,102254.07
2022-11-27T05:49:51.477Z,102252.73
2022-11-27T05:50:55.728Z,102257.84
2022-11-27T05:52:00.028Z,102259.63
2022-11-27T05:53:04.253Z,102260.41
2022-11-27T05:54:08.479Z,102263.83
2022-11-27T05:55:12.705Z,102257.89
2022-11-27T05:56:16.947Z,102258.41
2022-11-27T05:57:21.167Z,102258.62
2022-11-27T05:58:25.395Z,102252.69
2022-11-27T05:59:29.622Z,102255.88
2022-11-27T06:00:33.854Z,102258.31
2022-11-27T06:01:38.233Z,102260.37
2022-11-27T06:02:42.874Z,102264.09
2022-11-27T06:03:47.477Z,102265.08
2022-11-27T06:04:51.896Z,102262.28
2022-11-27T06:05:56.128Z,102263.17
2022-11-27T06:07:00.367Z,102273.08
2022-11-27T06:08:04.604Z,102268.8
2022-11-27T06:09:13.870Z,102270.14
2022-11-27T06:10:18.160Z,102268.16
2022-11-27T06:11:22.379Z,102265.73
2022-11-27T06:12:26.604Z,102266.7
2022-11-27T06:13:30.829Z,102266.88
2022-11-27T06:14:35.023Z,102269.81
2022-11-27T06:15:39.285Z,102262.88
2022-11-27T06:16:43.700Z,102264.53
2022-11-27T06:17:48.027Z,102263.08
2022-11-27T06:18:52.261Z,102265.53
2022-11-27T06:19:56.497Z,102266.94
2022-11-27T06:21:00.719Z,102267.13
2022-11-27T06:22:04.950Z,102270.06
2022-11-27T06:23:09.192Z,102267.06
2022-11-27T06:24:13.445Z,102261.48
2022-11-27T06:25:17.678Z,102271.03
2022-11-27T06:26:21.930Z,102269.94
2022-11-27T06:27:26.137Z,102274.58
2022-11-27T06:28:30.355Z,102269.73
2022-11-27T06:29:34.560Z,102270.37
2022-11-27T06:30:38.791Z,102268.17
2022-11-27T06:31:43.150Z,102269.76
2022-11-27T06:32:47.576Z,102266.3
2022-11-27T06:33:51.800Z,102267.74
2022-11-27T06:34:56.081Z,102269.64
2022-11-27T06:36:00.297Z,102262.88
2022-11-27T06:37:05.437Z,102261.48
2022-11-27T06:38:16.302Z,102260.79
2022-11-27T06:39:20.916Z,102267.61
2022-11-27T06:40:25.165Z,102260.23
2022-11-27T06:41:29.412Z,102263.87
2022-11-27T06:42:33.656Z,102261.28
2022-11-27T06:43:37.898Z,102261.45
2022-11-27T06:44:42.739Z,102268.22
2022-11-27T06:45:47.245Z,102273.75
2022-11-27T06:46:51.605Z,102275.27
2022-11-27T06:47:55.826Z,102276.55
2022-11-27T06:49:00.033Z,102270.96
2022-11-27T06:50:04.263Z,102273.09
2022-11-27T06:51:08.507Z,102278.03
2022-11-27T06:52:12.961Z,102269.11
2022-11-27T06:53:17.177Z,102272.05
2022-11-27T06:54:21.413Z,102277.41
2022-11-27T06:55:25.648Z,102276.12
2022-11-27T06:56:29.855Z,102280.66
2022-11-27T06:57:34.079Z,102279.98
2022-11-27T06:58:38.333Z,102279.77
2022-11-27T06:59:42.553Z,102282.08
2022-11-27T07:00:46.934Z,102281.41
2022-11-27T07:01:51.421Z,102278.86
2022-11-27T07:02:55.830Z,102281.09
2022-11-27T07:04:00.101Z,102284.36
2022-11-27T07:05:04.316Z,102280.95
2022-11-27T07:06:08.654Z,102278.41
2022-11-27T07:07:13.222Z,102276.34
2022-11-27T07:08:17.625Z,102279.21
2022-11-27T07:09:21.866Z,102281.16
2022-11-27T07:10:26.094Z,102280.02
2022-11-27T07:11:30.681Z,102274.76
2022-11-27T07:12:35.918Z,102277.08
2022-11-27T07:13:40.135Z,102271.48
2022-11-27T07:14:44.369Z,102274.78
2022-11-27T07:15:48.585Z,102271.78
2022-11-27T07:16:55.197Z,102275.45
2022-11-27T07:17:59.667Z,102269.3
2022-11-27T07:19:03.884Z,102274.34
2022-11-27T07:20:08.099Z,102263.15
2022-11-27T07:21:12.343Z,102268.62
2022-11-27T07:22:16.591Z,102266.86
2022-11-27T07:23:20.792Z,102266.44
2022-11-27T07:24:24.998Z,102270.69
2022-11-27T07:25:29.222Z,102265.86
2022-11-27T07:26:33.455Z,102273.31
2022-11-27T07:27:37.681Z,102271.39
2022-11-27T07:28:41.936Z,102269.02
2022-11-27T07:29:46.402Z,102262.27
2022-11-27T07:30:50.635Z,102262.91
2022-11-27T07:31:55.200Z,102259.92
2022-11-27T07:32:59.534Z,102263.5
2022-11-27T07:34:09.898Z,102265.31
2022-11-27T07:35:24.498Z,102261.03
2022-11-27T07:36:28.837Z,102266.7
2022-11-27T07:37:33.090Z,102262.54
2022-11-27T07:38:37.563Z,102260.98
2022-11-27T07:40:03.632Z,102260.05
2022-11-27T07:41:08.037Z,102261.5
2022-11-27T07:42:39.127Z,102258.09
2022-11-27T07:43:43.574Z,102257.45
2022-11-27T07:44:47.862Z,102262.05
2022-11-27T07:45:52.274Z,102256.98
2022-11-27T07:46:56.647Z,102255.11
2022-11-27T07:48:00.854Z,102256.14
2022-11-27T07:49:05.094Z,102256.09
2022-11-27T07:50:09.353Z,102256.7
2022-11-27T07:51:13.627Z,102260.78
2022-11-27T07:52:18.125Z,102252.78
2022-11-27T07:53:22.346Z,102264.22
2022-11-27T07:54:26.591Z,102255.36
2022-11-27T07:55:30.924Z,102261.7
2022-11-27T07:56:35.157Z,102260.08
2022-11-27T07:57:39.353Z,102264.64
2022-11-27T07:58:43.601Z,102258.45
2022-11-27T07:59:48.699Z,102255.83
2022-11-27T08:00:53.020Z,102258.95
2022-11-27T08:01:57.373Z,102255.91
2022-11-27T08:03:01.661Z,102254.31
2022-11-27T08:04:05.882Z,102257.14
2022-11-27T08:05:14.066Z,102258.12
2022-11-27T08:06:18.470Z,102260.06
2022-11-27T08:07:22.811Z,102256.97
2022-11-27T08:08:27.196Z,102265.17
2022-11-27T08:09:31.448Z,102259.45
2022-11-27T08:10:35.675Z,102253.72
2022-11-27T08:11:39.916Z,102257.02
2022-11-27T08:12:44.138Z,102259.05
2022-11-27T08:13:48.428Z,102256.48
2022-11-27T08:14:52.651Z,102250.55
2022-11-27T08:15:57.224Z,102258.19
2022-11-27T08:17:01.562Z,102263.23
2022-11-27T08:18:05.785Z,102263.43
2022-11-27T08:19:10.004Z,102267.34
2022-11-27T08:20:14.209Z,102267.77
2022-11-27T08:21:18.480Z,102259.89
2022-11-27T08:22:22.710Z,102266.6
2022-11-27T08:23:26.925Z,102269.27
2022-11-27T08:24:31.160Z,102271.92
2022-11-27T08:25:35.412Z,102264.19
2022-11-27T08:26:39.621Z,102272.52
2022-11-27T08:27:43.879Z,102267.83
2022-11-27T08:28:48.100Z,102267.8
2022-11-27T08:29:52.357Z,102269.3
2022-11-27T08:30:56.586Z,102269.59
2022-11-27T08:32:00.968Z,102269.28
2022-11-27T08:33:05.372Z,102264.02
2022-11-27T08:34:09.610Z,102267.41
2022-11-27T08:35:14.124Z,102270.16
2022-11-27T08:36:19.520Z,102260.1
2022-11-27T08:37:23.748Z,102266.22
2022-11-27T08:38:27.971Z,102264.2
2022-11-27T08:39:32.202Z,102267.44
2022-11-27T08:40:36.448Z,102260.2
2022-11-27T08:41:40.709Z,102262.71
2022-11-27T08:42:44.924Z,102261.47
2022-11-27T08:43:49.134Z,102264.66
2022-11-27T08:44:53.359Z,102256.3
2022-11-27T08:45:57.697Z,102267.28
2022-11-27T08:47:02.044Z,102263.86
2022-11-27T08:48:06.254Z,102259.04
2022-11-27T08:49:10.535Z,102262.51
2022-11-27T08:50:14.773Z,102268.97
2022-11-27T08:51:19.063Z,102261.28
2022-11-27T08:52:23.296Z,102268.44
2022-11-27T08:53:27.534Z,102264.33
2022-11-27T08:54:31.741Z,102266.34
2022-11-27T08:55:35.967Z,102268.11
2022-11-27T08:56:40.213Z,102264.45
2022-11-27T08:57:44.435Z,102262.33
2022-11-27T08:58:48.665Z,102264.08
2022-11-27T08:59:52.915Z,102264.95
2022-11-27T09:00:57.292Z,102265.79
2022-11-27T09:02:01.711Z,102262.95
2022-11-27T09:03:05.931Z,102265.55
2022-11-27T09:04:10.314Z,102262.5
2022-11-27T09:05:14.610Z,102268.67
2022-11-27T09:06:18.878Z,102266.97
2022-11-27T09:07:23.253Z,102268.36
2022-11-27T09:08:27.685Z,102259.95
2022-11-27T09:09:31.930Z,102268.05
2022-11-27T09:10:36.147Z,102267.69
2022-11-27T09:11:40.382Z,102269.76
2022-11-27T09:12:44.735Z,102260.93
2022-11-27T09:13:48.976Z,102260.98
2022-11-27T09:14:53.193Z,102263.47
2022-11-27T09:15:57.436Z,102258.61
2022-11-27T09:17:01.801Z,102261.24
2022-11-27T09:18:06.121Z,102262.69
2022-11-27T09:19:10.425Z,102258.98
2022-11-27T09:20:14.653Z,102265.3
2022-11-27T09:21:18.873Z,102255.83
2022-11-27T09:22:24.174Z,102254.63
2022-11-27T09:23:28.421Z,102265.03
2022-11-27T09:24:32.658Z,102257.56
2022-11-27T09:25:36.869Z,102265.11
2022-11-27T09:26:41.094Z,102262.12
2022-11-27T09:27:45.331Z,102260.58
2022-11-27T09:28:49.573Z,102262.12
2022-11-27T09:29:53.832Z,102263.57
2022-11-27T09:30:58.061Z,102265.08
2022-11-27T09:32:02.473Z,102258.11
2022-11-27T09:33:06.787Z,102260.29
2022-11-27T09:34:11.058Z,102252.12
2022-11-27T09:35:15.468Z,102257.66
2022-11-27T09:36:19.836Z,102258.78
2022-11-27T09:37:24.061Z,102255.03
2022-11-27T09:38:28.293Z,102251.09
2022-11-27T09:39:32.539Z,102250.16
2022-11-27T09:40:36.753Z,102245.89
2022-11-27T09:41:40.983Z,102244.18
2022-11-27T09:42:45.220Z,102240.72
2022-11-27T09:43:49.430Z,102240.14
2022-11-27T09:44:53.646Z,102244.22
2022-11-27T09:45:57.932Z,102243.49
2022-11-27T09:47:02.380Z,102239.77
2022-11-27T09:48:06.749Z,102240.75
2022-11-27T09:49:10.988Z,102239.05
2022-11-27T09:50:15.203Z,102237.4
2022-11-27T09:51:19.425Z,102241.57
2022-11-27T09:52:23.678Z,102240.14
2022-11-27T09:53:27.899Z,102238.44
2022-11-27T09:54:34.535Z,102245.09
2022-11-27T09:55:38.779Z,102235.33
2022-11-27T09:56:43.044Z,102240.39
2022-11-27T09:57:47.288Z,102229.59
2022-11-27T09:58:51.533Z,102237.2
2022-11-27T09:59:55.756Z,102235.13
2022-11-27T10:01:00.007Z,102234.09
2022-11-27T10:02:04.477Z,102226.97
2022-11-27T10:03:09.474Z,102226.83
2022-11-27T10:04:13.961Z,102226.09
2022-11-27T10:05:19.394Z,102224.86
2022-11-27T10:06:24.288Z,102228.17
2022-11-27T10:07:28.603Z,102225.48
2022-11-27T10:08:33.010Z,102226.72
2022-11-27T10:09:37.251Z,102223.11
2022-11-27T10:10:41.536Z,102217.8
2022-11-27T10:11:45.816Z,102218.05
2022-11-27T10:12:50.058Z,102216.28
2022-11-27T10:13:54.271Z,102222.63
2022-11-27T10:14:58.465Z,102217.68
2022-11-27T10:16:02.666Z,102219.5
2022-11-27T10:17:07.216Z,102211.17
2022-11-27T10:18:11.606Z,102210.3
2022-11-27T10:19:15.831Z,102209.32
2022-11-27T10:20:20.529Z,102209.73
2022-11-27T10:21:24.792Z,102207.77
2022-11-27T10:22:29.046Z,102209.57
2022-11-27T10:23:33.537Z,102207.47
2022-11-27T10:24:38.032Z,102207.93
2022-11-27T10:25:42.940Z,102205.72
2022-11-27T10:26:47.173Z,102208.12
2022-11-27T10:27:51.408Z,102202.59
2022-11-27T10:28:55.651Z,102204.7
2022-11-27T10:29:59.856Z,102203.7
2022-11-27T10:31:04.095Z,102199.41
2022-11-27T10:32:14.355Z,102208.55
2022-11-27T10:33:57.754Z,102195.83
2022-11-27T10:35:02.077Z,102201.05
2022-11-27T10:36:06.356Z,102199.7
2022-11-27T10:37:10.569Z,102196.96
2022-11-27T10:38:14.791Z,102193.65
2022-11-27T10:39:19.022Z,102200.63
2022-11-27T10:40:23.261Z,102199.29
2022-11-27T10:41:50.195Z,102187.56
2022-11-27T10:42:54.509Z,102189.02
2022-11-27T10:44:00.403Z,102186.39
2022-11-27T10:45:05.958Z,102186.14
2022-11-27T10:46:10.725Z,102184.13
2022-11-27T10:47:15.205Z,102181.73
2022-11-27T10:48:19.447Z,102179
2022-11-27T10:49:24.711Z,102177.86
2022-11-27T10:50:28.914Z,102178.78
2022-11-27T10:51:33.123Z,102179.42
2022-11-27T10:52:37.365Z,102176.84
2022-11-27T10:53:41.602Z,102175.61
2022-11-27T10:54:45.852Z,102176.91
2022-11-27T10:55:50.099Z,102179.94
2022-11-27T10:56:54.399Z,102183.5
2022-11-27T10:57:58.621Z,102175.29
2022-11-27T10:59:02.871Z,102177.62
2022-11-27T11:00:07.167Z,102178.23
2022-11-27T11:01:11.506Z,102180.73
2022-11-27T11:02:15.956Z,102179.17
2022-11-27T11:03:20.214Z,102174.53
2022-11-27T11:04:40.266Z,102174.2
2022-11-27T11:06:21.102Z,102174.21
2022-11-27T11:07:27.039Z,102167.34
2022-11-27T11:08:31.405Z,102169.86
2022-11-27T11:09:35.656Z,102170.23
2022-11-27T11:10:39.914Z,102172.85
2022-11-27T11:11:44.142Z,102173.89
2022-11-27T11:12:48.386Z,102173.05
2022-11-27T11:13:52.596Z,102172.18
2022-11-27T11:14:56.835Z,102169.23
2022-11-27T11:16:01.103Z,102166.66
2022-11-27T11:17:05.484Z,102167.22
2022-11-27T11:18:09.874Z,102168.72
2022-11-27T11:19:14.093Z,102160.31
2022-11-27T11:20:18.409Z,102171.09
2022-11-27T11:21:22.751Z,102169.87
2022-11-27T11:22:26.984Z,102167.47
2022-11-27T11:23:31.219Z,102170.68
2022-11-27T11:24:35.457Z,102175.31
2022-11-27T11:25:39.674Z,102174.59
2022-11-27T11:26:43.910Z,102179.79
2022-11-27T11:27:48.177Z,102177.97
2022-11-27T11:28:52.385Z,102172.25
2022-11-27T11:29:56.632Z,102171.63
2022-11-27T11:31:00.871Z,102174.17
2022-11-27T11:32:05.217Z,102169.53
2022-11-27T11:33:09.634Z,102172.84
2022-11-27T11:34:13.875Z,102172.08
2022-11-27T11:35:18.162Z,102160.17
2022-11-27T11:36:22.378Z,102166.09
2022-11-27T11:37:26.629Z,102169.95
2022-11-27T11:38:30.858Z,102173.69
2022-11-27T11:39:35.191Z,102173.59
2022-11-27T11:40:39.430Z,102178.23
2022-11-27T11:41:43.676Z,102170.8
2022-11-27T11:42:50.154Z,102173.73
2022-11-27T11:43:56.739Z,102161.19
2022-11-27T11:45:00.988Z,102163.62
2022-11-27T11:46:05.429Z,102163.83
2022-11-27T11:47:09.767Z,102156.95
2022-11-27T11:48:13.976Z,102166.91
2022-11-27T11:49:18.184Z,102165.73
2022-11-27T11:50:22.391Z,102168.58
2022-11-27T11:51:30.425Z,102168.83
2022-11-27T11:52:34.673Z,102174.34
2022-11-27T11:53:38.895Z,102168
2022-11-27T11:54:43.793Z,102169.28
2022-11-27T11:55:48.185Z,102164.67
2022-11-27T11:56:52.450Z,102172.11
2022-11-27T11:57:59.779Z,102168.59
2022-11-27T11:59:04.172Z,102171.88
2022-11-27T12:00:09.041Z,102171.52
2022-11-27T12:01:27.913Z,102170.7
2022-11-27T12:02:32.322Z,102166.33
2022-11-27T12:03:36.759Z,102166.88
2022-11-27T12:04:41.696Z,102166.1
2022-11-27T12:05:46.803Z,102165.73
2022-11-27T12:06:51.010Z,102165.87
2022-11-27T12:07:55.407Z,102162.89
2022-11-27T12:08:59.736Z,102160.41
2022-11-27T12:10:03.976Z,102153.8
2022-11-27T12:11:08.278Z,102155.2
2022-11-27T12:12:12.484Z,102154.31
2022-11-27T12:13:16.707Z,102152.16
2022-11-27T12:14:20.938Z,102153.02
2022-11-27T12:15:25.194Z,102157.1
2022-11-27T12:16:29.593Z,102149.11
2022-11-27T12:17:33.901Z,102148.33
2022-11-27T12:18:38.175Z,102146.2
2022-11-27T12:19:42.398Z,102146.31
2022-11-27T12:20:46.639Z,102147.85